createdAt,value
2018-02-02T10:09:54.362Z,13.11
2018-02-02T10:10:54.457Z,13.28
2018-02-02T10:12:47.324Z,13.89
2018-02-02T10:13:47.296Z,14.22
2018-02-02T10:15:40.269Z,12.75
2018-02-02T10:16:40.160Z,12.91
2018-02-02T10:17:40.203Z,12.87
2018-02-02T10:18:40.155Z,11.71
2018-02-02T10:19:40.185Z,11.99
2018-02-02T10:20:40.150Z,12.69
2018-02-02T10:21:40.155Z,12.10
2018-02-02T10:22:40.174Z,11.53
2018-02-02T10:23:40.154Z,12.33
2018-02-02T10:24:40.160Z,12.55
2018-02-02T10:25:40.178Z,11.91
2018-02-02T10:26:40.156Z,11.41
2018-02-02T10:27:40.171Z,10.82
2018-02-02T10:28:40.168Z,11.81
2018-02-02T10:29:40.168Z,12.02
2018-02-02T10:30:40.165Z,12.03
2018-02-02T10:31:40.172Z,12.87
2018-02-02T10:32:40.175Z,12.47
2018-02-02T10:33:40.177Z,13.09
2018-02-02T10:34:40.179Z,12.69
2018-02-02T10:35:40.188Z,12.58
2018-02-02T10:36:40.185Z,12.21
2018-02-02T10:37:40.187Z,12.45
2018-02-02T10:38:40.199Z,12.73
2018-02-02T10:39:40.204Z,13.09
2018-02-02T10:40:40.204Z,13.47
2018-02-02T10:41:40.203Z,13.78
2018-02-02T10:42:40.206Z,13.93
2018-02-02T10:43:40.208Z,13.97
2018-02-02T10:44:40.207Z,14.52
2018-02-02T10:45:40.212Z,14.51
2018-02-02T10:46:40.215Z,14.19
2018-02-02T10:47:40.220Z,14.11
2018-02-02T10:48:40.233Z,13.46
2018-02-02T10:49:40.232Z,13.46
2018-02-02T10:50:40.251Z,13.12
2018-02-02T10:51:40.239Z,12.81
2018-02-02T10:52:40.240Z,12.11
2018-02-02T10:53:40.241Z,11.59
2018-02-02T10:54:40.255Z,11.07
2018-02-02T10:55:40.257Z,11.01
2018-02-02T10:56:40.287Z,11.35
2018-02-02T10:57:40.268Z,10.51
2018-02-02T10:58:40.282Z,11.10
2018-02-02T10:59:40.285Z,11.15
2018-02-02T11:00:40.316Z,11.23
2018-02-02T11:01:40.309Z,11.02
2018-02-02T11:02:40.308Z,11.04
2018-02-02T11:03:40.299Z,11.31
2018-02-02T11:04:40.308Z,10.31
2018-02-02T11:05:40.300Z,9.15
2018-02-02T11:06:40.293Z,9.34
2018-02-02T11:07:40.290Z,10.82
2018-02-02T11:08:40.302Z,9.74
2018-02-02T11:09:40.305Z,9.00
2018-02-02T11:10:40.299Z,11.10
2018-02-02T11:11:40.300Z,11.22
2018-02-02T11:12:40.303Z,10.87
2018-02-02T11:13:40.309Z,10.90
2018-02-02T11:14:40.303Z,11.91
2018-02-02T11:15:40.309Z,11.78
2018-02-02T11:16:40.314Z,11.13
2018-02-02T11:17:40.319Z,11.67
2018-02-02T11:18:40.328Z,12.26
2018-02-02T11:19:40.304Z,12.81
2018-02-02T11:20:40.320Z,13.70
2018-02-02T11:21:40.348Z,13.11
2018-02-02T11:22:40.311Z,12.02
2018-02-02T11:23:40.322Z,11.31
2018-02-02T11:24:40.324Z,11.56
2018-02-02T11:25:40.328Z,11.85
2018-02-02T11:26:40.332Z,11.53
2018-02-02T11:27:40.334Z,10.92
2018-02-02T11:28:40.336Z,11.83
2018-02-02T11:29:40.343Z,12.57
2018-02-02T11:30:40.339Z,13.23
2018-02-02T11:31:40.349Z,13.17
2018-02-02T11:32:40.344Z,12.81
2018-02-02T11:33:40.349Z,12.55
2018-02-02T11:34:40.362Z,12.26
2018-02-02T11:35:40.376Z,11.95
2018-02-02T11:36:40.351Z,12.15
2018-02-02T11:37:40.354Z,11.62
2018-02-02T11:38:40.365Z,11.31
2018-02-02T11:39:40.359Z,11.49
2018-02-02T11:40:40.376Z,12.37
2018-02-02T11:41:40.364Z,12.58
2018-02-02T11:42:40.369Z,13.47
2018-02-02T11:43:40.368Z,12.57
2018-02-02T11:44:40.370Z,12.78
2018-02-02T11:45:40.372Z,12.26
2018-02-02T11:46:40.414Z,11.49
2018-02-02T11:47:40.392Z,11.33
2018-02-02T11:48:40.388Z,10.90
2018-02-02T11:49:40.382Z,10.15
2018-02-02T11:50:40.389Z,8.99
2018-02-02T11:51:40.385Z,7.48
2018-02-02T11:52:40.385Z,7.03
2018-02-02T11:53:40.383Z,9.05
2018-02-02T11:54:40.389Z,9.90
2018-02-02T11:55:40.399Z,8.46
2018-02-02T11:56:40.416Z,8.57
2018-02-02T11:57:40.402Z,8.84
2018-02-02T11:58:40.405Z,10.15
2018-02-02T11:59:40.417Z,10.92
2018-02-02T12:00:40.404Z,9.80
2018-02-02T12:01:40.397Z,9.47
2018-02-02T12:02:40.419Z,10.09
2018-02-02T12:03:40.412Z,10.80
2018-02-02T12:04:40.402Z,9.94
2018-02-02T12:05:40.398Z,10.24
2018-02-02T12:06:40.393Z,10.84
2018-02-02T12:07:40.390Z,11.16
2018-02-02T12:08:41.153Z,10.38
2018-02-02T12:09:40.452Z,10.46
2018-02-02T12:10:40.391Z,11.37
2018-02-02T12:11:40.392Z,11.91
2018-02-02T12:12:40.402Z,12.11
2018-02-02T12:13:40.393Z,10.58
2018-02-02T12:14:40.393Z,9.90
2018-02-02T12:15:40.395Z,10.17
2018-02-02T12:16:40.397Z,10.58
2018-02-02T12:17:40.397Z,11.70
2018-02-02T12:18:40.400Z,12.21
2018-02-02T12:19:40.403Z,13.08
2018-02-02T12:20:40.399Z,13.21
2018-02-02T12:21:40.400Z,13.12
2018-02-02T12:22:40.403Z,12.57
2018-02-02T12:23:40.402Z,12.72
2018-02-02T12:24:40.404Z,13.13
2018-02-02T12:25:40.407Z,13.49
2018-02-02T12:26:40.400Z,13.12
2018-02-02T12:27:40.400Z,12.45
2018-02-02T12:28:40.412Z,11.81
2018-02-02T12:29:40.404Z,12.84
2018-02-02T12:30:40.409Z,12.95
2018-02-02T12:31:40.408Z,12.73
2018-02-02T12:32:40.422Z,12.29
2018-02-02T12:33:40.412Z,12.32
2018-02-02T12:34:40.410Z,12.11
2018-02-02T12:35:40.426Z,12.73
2018-02-02T12:36:40.416Z,13.31
2018-02-02T12:37:40.417Z,12.83
2018-02-02T12:38:40.419Z,13.28
2018-02-02T12:39:40.428Z,12.14
2018-02-02T12:40:40.425Z,10.90
2018-02-02T12:41:40.420Z,10.64
2018-02-02T12:42:40.540Z,10.64
2018-02-02T12:43:40.435Z,11.12
2018-02-02T12:44:40.445Z,10.95
2018-02-02T12:45:40.440Z,10.02
2018-02-02T12:46:40.454Z,9.42
2018-02-02T12:47:40.442Z,8.42
2018-02-02T12:48:40.448Z,7.96
2018-02-02T12:49:40.451Z,7.72
2018-02-02T12:50:40.447Z,7.29
2018-02-02T12:51:40.440Z,6.57
2018-02-02T12:52:40.449Z,5.67
2018-02-02T12:53:40.445Z,5.69
2018-02-02T12:54:40.478Z,5.90
2018-02-02T12:55:40.478Z,6.09
2018-02-02T12:56:40.452Z,6.20
2018-02-02T12:57:40.437Z,6.12
2018-02-02T12:58:40.448Z,5.94
2018-02-02T12:59:40.450Z,6.02
2018-02-02T13:00:40.428Z,6.20
2018-02-02T13:01:40.426Z,6.38
2018-02-02T13:02:40.423Z,6.25
2018-02-02T13:03:40.420Z,6.20
2018-02-02T13:04:40.415Z,6.20
2018-02-02T13:05:40.439Z,6.02
2018-02-02T13:06:40.404Z,5.94
2018-02-02T13:07:40.410Z,5.88
2018-02-02T13:08:40.404Z,5.83
2018-02-02T13:09:40.405Z,5.51
2018-02-02T13:10:40.422Z,5.49
2018-02-02T13:11:40.394Z,5.56
2018-02-02T13:12:40.392Z,5.56
2018-02-02T13:13:40.391Z,5.47
2018-02-02T13:14:40.380Z,5.59
2018-02-02T13:15:40.381Z,5.49
2018-02-02T13:16:40.380Z,5.65
2018-02-02T13:17:40.369Z,5.77
2018-02-02T13:18:40.375Z,5.79
2018-02-02T13:19:40.365Z,6.01
2018-02-02T13:20:40.439Z,5.94
2018-02-02T13:21:40.369Z,6.12
2018-02-02T13:22:40.354Z,6.28
2018-02-02T13:23:40.341Z,6.10
2018-02-02T13:24:40.337Z,6.17
2018-02-02T13:25:40.338Z,6.29
2018-02-02T13:26:40.327Z,6.25
2018-02-02T13:27:40.339Z,6.16
2018-02-02T13:28:40.322Z,6.22
2018-02-02T13:29:40.334Z,5.84
2018-02-02T13:30:40.309Z,5.74
2018-02-02T13:31:40.308Z,5.70
2018-02-02T13:32:40.314Z,5.92
2018-02-02T13:33:40.300Z,5.92
2018-02-02T13:34:40.299Z,5.88
2018-02-02T13:35:40.358Z,5.79
2018-02-02T13:36:40.285Z,5.90
2018-02-02T13:37:40.274Z,5.88
2018-02-02T13:38:40.276Z,5.46
2018-02-02T13:39:40.269Z,5.26
2018-02-02T13:40:40.316Z,5.26
2018-02-02T13:41:41.314Z,4.70
2018-02-02T13:42:40.273Z,4.24
2018-02-02T13:43:40.252Z,4.38
2018-02-02T13:44:40.245Z,4.36
2018-02-02T13:45:40.256Z,4.43
2018-02-02T13:46:40.231Z,4.38
2018-02-02T13:47:40.233Z,4.43
2018-02-02T13:48:40.217Z,4.52
2018-02-02T13:49:40.224Z,4.57
2018-02-02T13:50:40.237Z,4.49
2018-02-02T13:51:40.228Z,4.52
2018-02-02T13:52:40.200Z,4.56
2018-02-02T13:53:40.196Z,4.56
2018-02-02T13:54:40.182Z,4.56
2018-02-02T13:55:40.180Z,4.50
2018-02-02T13:56:40.174Z,4.45
2018-02-02T13:57:40.160Z,4.27
2018-02-02T13:58:40.153Z,4.21
2018-02-02T13:59:40.142Z,4.16
2018-02-02T14:00:40.132Z,4.20
2018-02-02T14:01:40.181Z,4.13
2018-02-02T14:02:40.149Z,4.10
2018-02-02T14:03:40.113Z,4.12
2018-02-02T14:04:40.111Z,4.18
2018-02-02T14:05:40.163Z,4.12
2018-02-02T14:06:40.099Z,4.09
2018-02-02T14:07:40.081Z,4.10
2018-02-02T14:08:40.076Z,4.10
2018-02-02T14:09:40.067Z,4.10
2018-02-02T14:10:40.060Z,4.24
2018-02-02T14:11:40.754Z,4.16
2018-02-02T14:12:40.075Z,4.20
2018-02-02T14:13:40.038Z,4.20
2018-02-02T14:14:40.030Z,4.30
2018-02-02T14:15:40.019Z,4.31
2018-02-02T14:16:40.017Z,4.34
2018-02-02T14:17:40.055Z,4.43
2018-02-02T14:18:40.036Z,4.48
2018-02-02T14:19:39.985Z,4.56
2018-02-02T14:20:39.985Z,4.43
2018-02-02T14:21:39.972Z,4.46
2018-02-02T14:22:39.969Z,4.46
2018-02-02T14:23:39.958Z,4.53
2018-02-02T14:24:39.949Z,4.43
2018-02-02T14:25:40.003Z,4.49
2018-02-02T14:26:39.935Z,4.40
2018-02-02T14:27:39.926Z,4.42
2018-02-02T14:28:39.920Z,4.43
2018-02-02T14:29:39.987Z,4.42
2018-02-02T14:30:39.905Z,4.31
2018-02-02T14:31:39.929Z,4.28
2018-02-02T14:32:39.905Z,4.24
2018-02-02T14:33:39.876Z,4.16
2018-02-02T14:34:39.873Z,4.09
2018-02-02T14:35:39.879Z,4.22
2018-02-02T14:36:39.858Z,4.30
2018-02-02T14:37:39.852Z,4.20
2018-02-02T14:38:39.880Z,4.03
2018-02-02T14:39:39.833Z,4.10
2018-02-02T14:40:39.868Z,4.07
2018-02-02T14:41:39.877Z,4.06
2018-02-02T14:42:39.818Z,4.13
2018-02-02T14:43:39.804Z,4.16
2018-02-02T14:44:39.827Z,4.14
2018-02-02T14:45:39.790Z,4.24
2018-02-02T14:46:39.779Z,4.25
2018-02-02T14:47:39.779Z,4.31
2018-02-02T14:48:39.760Z,4.30
2018-02-02T14:49:39.758Z,4.38
2018-02-02T14:50:39.851Z,4.30
2018-02-02T14:51:39.741Z,4.28
2018-02-02T14:52:39.736Z,4.25
2018-02-02T14:53:39.728Z,4.24
2018-02-02T14:54:39.715Z,4.21
2018-02-02T14:55:39.710Z,4.34
2018-02-02T14:56:39.696Z,4.27
2018-02-02T14:57:39.723Z,4.20
2018-02-02T14:58:39.686Z,4.25
2018-02-02T14:59:39.687Z,4.18
2018-02-02T15:00:39.718Z,4.20
2018-02-02T15:01:39.711Z,4.22
2018-02-02T15:02:39.678Z,4.10
2018-02-02T15:03:39.648Z,4.10
2018-02-02T15:04:39.632Z,4.13
2018-02-02T15:05:39.737Z,4.04
2018-02-02T15:06:39.626Z,3.88
2018-02-02T15:07:39.622Z,3.77
2018-02-02T15:08:39.609Z,3.77
2018-02-02T15:09:39.603Z,3.70
2018-02-02T15:10:39.589Z,3.78
2018-02-02T15:11:39.585Z,3.68
2018-02-02T15:12:39.587Z,3.64
2018-02-02T15:13:39.569Z,3.64
2018-02-02T15:14:39.590Z,3.61
2018-02-02T15:15:39.551Z,3.58
2018-02-02T15:16:39.588Z,3.55
2018-02-02T15:17:39.535Z,3.53
2018-02-02T15:18:39.530Z,3.50
2018-02-02T15:19:39.524Z,3.49
2018-02-02T15:20:39.589Z,3.46
2018-02-02T15:21:39.611Z,3.45
2018-02-02T15:22:39.503Z,3.48
2018-02-02T15:23:39.484Z,3.34
2018-02-02T15:24:39.493Z,3.40
2018-02-02T15:25:39.468Z,3.33
2018-02-02T15:26:39.457Z,3.34
2018-02-02T15:27:39.447Z,3.40
2018-02-02T15:28:39.455Z,3.33
2018-02-02T15:29:39.437Z,3.40
2018-02-02T15:30:39.480Z,3.37
2018-02-02T15:31:39.477Z,3.34
2018-02-02T15:32:39.410Z,3.33
2018-02-02T15:33:39.394Z,3.34
2018-02-02T15:34:39.390Z,3.33
2018-02-02T15:35:39.416Z,3.22
2018-02-02T15:36:39.367Z,3.29
2018-02-02T15:37:39.357Z,3.24
2018-02-02T15:38:39.347Z,3.22
2018-02-02T15:39:39.335Z,3.12
2018-02-02T15:40:39.327Z,3.19
2018-02-02T15:41:39.314Z,3.12
2018-02-02T15:42:39.308Z,3.27
2018-02-02T15:43:39.302Z,3.15
2018-02-02T15:44:39.298Z,3.16
2018-02-02T15:45:39.279Z,3.03
2018-02-02T15:46:39.267Z,3.15
2018-02-02T15:47:39.270Z,3.06
2018-02-02T15:48:39.254Z,3.21
2018-02-02T15:49:39.241Z,3.13
2018-02-02T15:50:39.265Z,3.09
2018-02-02T15:51:39.223Z,3.03
2018-02-02T15:52:39.213Z,3.11
2018-02-02T15:53:39.205Z,3.11
2018-02-02T15:54:39.198Z,2.98
2018-02-02T15:55:39.187Z,2.98
2018-02-02T15:56:39.175Z,2.98
2018-02-02T15:57:39.171Z,3.01
2018-02-02T15:58:39.161Z,3.00
2018-02-02T15:59:39.165Z,2.93
2018-02-02T16:00:39.148Z,2.95
2018-02-02T16:01:39.172Z,2.93
2018-02-02T16:02:39.231Z,2.93
2018-02-02T16:03:39.113Z,2.90
2018-02-02T16:04:39.123Z,2.87
2018-02-02T16:05:39.148Z,2.77
2018-02-02T16:06:39.111Z,2.76
2018-02-02T16:07:39.160Z,2.83
2018-02-02T16:08:39.120Z,2.77
2018-02-02T16:09:39.116Z,2.83
2018-02-02T16:10:39.086Z,2.69
2018-02-02T16:11:39.122Z,2.70
2018-02-02T16:12:39.102Z,2.69
2018-02-02T16:13:39.017Z,2.64
2018-02-02T16:14:39.086Z,2.65
2018-02-02T16:15:39.110Z,2.65
2018-02-02T16:16:39.151Z,2.70
2018-02-02T16:17:38.981Z,2.69
2018-02-02T16:18:38.964Z,2.61
2018-02-02T16:19:38.988Z,2.65
2018-02-02T16:20:39.048Z,2.58
2018-02-02T16:21:38.951Z,2.51
2018-02-02T16:22:39.011Z,2.57
2018-02-02T16:23:38.918Z,2.58
2018-02-02T16:24:39.032Z,2.52
2018-02-02T16:25:39.033Z,2.44
2018-02-02T16:26:38.935Z,2.61
2018-02-02T16:27:38.914Z,2.44
2018-02-02T16:28:38.865Z,2.59
2018-02-02T16:29:39.103Z,2.57
2018-02-02T16:30:38.856Z,2.54
2018-02-02T16:31:38.878Z,2.55
2018-02-02T16:32:38.886Z,2.54
2018-02-02T16:33:38.820Z,2.52
2018-02-02T16:34:38.880Z,2.47
2018-02-02T16:35:38.888Z,2.51
2018-02-02T16:36:38.781Z,2.44
2018-02-02T16:37:38.776Z,2.44
2018-02-02T16:38:38.782Z,2.51
2018-02-02T16:39:38.754Z,2.51
2018-02-02T16:40:38.787Z,2.50
2018-02-02T16:41:38.775Z,2.43
2018-02-02T16:42:38.759Z,2.51
2018-02-02T16:43:38.725Z,2.44
2018-02-02T16:44:38.742Z,2.43
2018-02-02T16:45:38.689Z,2.55
2018-02-02T16:46:38.694Z,2.50
2018-02-02T16:47:38.656Z,2.44
2018-02-02T16:48:38.652Z,2.46
2018-02-02T16:49:38.635Z,2.44
2018-02-02T16:50:38.702Z,2.46
2018-02-02T16:51:38.617Z,2.47
2018-02-02T16:52:38.608Z,2.37
2018-02-02T16:53:38.600Z,2.39
2018-02-02T16:54:38.597Z,2.39
2018-02-02T16:55:38.577Z,2.32
2018-02-02T16:56:38.569Z,2.36
2018-02-02T16:57:38.553Z,2.28
2018-02-02T16:58:38.543Z,2.36
2018-02-02T16:59:38.533Z,2.36
2018-02-02T17:00:38.524Z,2.36
2018-02-02T17:01:38.534Z,2.39
2018-02-02T17:02:38.541Z,2.28
2018-02-02T17:03:38.495Z,2.28
2018-02-02T17:04:38.570Z,2.34
2018-02-02T17:05:38.516Z,2.33
2018-02-02T17:06:38.481Z,2.32
2018-02-02T17:07:38.468Z,2.33
2018-02-02T17:08:38.436Z,2.32
2018-02-02T17:09:38.425Z,2.25
2018-02-02T17:10:38.424Z,2.25
2018-02-02T17:11:38.405Z,2.19
2018-02-02T17:12:38.422Z,2.32
2018-02-02T17:13:38.384Z,2.21
2018-02-02T17:14:38.380Z,2.23
2018-02-02T17:15:38.366Z,2.22
2018-02-02T17:16:38.367Z,2.23
2018-02-02T17:17:38.339Z,2.19
2018-02-02T17:18:38.328Z,2.23
2018-02-02T17:19:38.324Z,2.22
2018-02-02T17:20:38.358Z,2.19
2018-02-02T17:21:38.300Z,2.21
2018-02-02T17:22:38.293Z,2.18
2018-02-02T17:23:38.276Z,2.19
2018-02-02T17:24:38.272Z,2.16
2018-02-02T17:25:38.262Z,2.15
2018-02-02T17:26:38.280Z,2.21
2018-02-02T17:27:38.232Z,2.15
2018-02-02T17:28:38.231Z,2.19
2018-02-02T17:29:38.218Z,2.23
2018-02-02T17:30:38.203Z,2.22
2018-02-02T17:31:38.184Z,2.23
2018-02-02T17:32:38.216Z,2.21
2018-02-02T17:33:38.167Z,2.22
2018-02-02T17:34:38.207Z,2.22
2018-02-02T17:35:38.198Z,2.23
2018-02-02T17:36:38.150Z,2.16
2018-02-02T17:37:38.128Z,2.10
2018-02-02T17:38:38.149Z,2.18
2018-02-02T17:39:38.166Z,2.18
2018-02-02T17:40:38.100Z,2.14
2018-02-02T17:41:38.101Z,2.19
2018-02-02T17:42:38.076Z,2.04
2018-02-02T17:43:38.070Z,2.14
2018-02-02T17:44:38.054Z,2.19
2018-02-02T17:45:38.042Z,2.10
2018-02-02T17:46:38.033Z,2.21
2018-02-02T17:47:38.020Z,2.10
2018-02-02T17:48:38.014Z,2.08
2018-02-02T17:49:37.997Z,1.97
2018-02-02T17:50:38.051Z,2.05
2018-02-02T17:51:37.987Z,2.01
2018-02-02T17:52:37.971Z,2.03
2018-02-02T17:53:37.985Z,2.01
2018-02-02T17:54:37.971Z,2.00
2018-02-02T17:55:38.716Z,2.12
2018-02-02T17:56:37.936Z,2.10
2018-02-02T17:57:37.941Z,2.10
2018-02-02T17:58:37.910Z,2.12
2018-02-02T17:59:37.913Z,2.03
2018-02-02T18:00:37.941Z,2.04
2018-02-02T18:01:37.872Z,2.00
2018-02-02T18:02:37.873Z,1.97
2018-02-02T18:03:37.882Z,2.00
2018-02-02T18:04:37.844Z,1.88
2018-02-02T18:05:37.846Z,1.95
2018-02-02T18:06:37.822Z,1.88
2018-02-02T18:07:37.845Z,1.98
2018-02-02T18:08:37.818Z,1.95
2018-02-02T18:09:37.806Z,1.85
2018-02-02T18:10:37.782Z,1.93
2018-02-02T18:11:37.774Z,1.86
2018-02-02T18:12:37.759Z,1.88
2018-02-02T18:13:38.305Z,1.86
2018-02-02T18:14:37.741Z,1.84
2018-02-02T18:15:37.783Z,1.84
2018-02-02T18:16:37.731Z,1.85
2018-02-02T18:17:37.710Z,1.86
2018-02-02T18:18:37.714Z,1.82
2018-02-02T18:19:37.724Z,1.75
2018-02-02T18:20:37.684Z,1.81
2018-02-02T18:21:37.729Z,1.74
2018-02-02T18:22:37.738Z,1.74
2018-02-02T18:23:37.636Z,1.75
2018-02-02T18:24:37.634Z,1.71
2018-02-02T18:25:37.610Z,1.67
2018-02-02T18:26:37.595Z,1.67
2018-02-02T18:27:37.578Z,1.71
2018-02-02T18:28:37.578Z,1.68
2018-02-02T18:29:37.562Z,1.71
2018-02-02T18:30:37.552Z,1.66
2018-02-02T18:31:37.571Z,1.74
2018-02-02T18:32:37.534Z,1.74
2018-02-02T18:33:37.519Z,1.70
2018-02-02T18:34:37.507Z,1.68
2018-02-02T18:35:37.510Z,1.74
2018-02-02T18:36:37.484Z,1.71
2018-02-02T18:37:37.482Z,1.71
2018-02-02T18:38:37.523Z,1.70
2018-02-02T18:39:37.454Z,1.74
2018-02-02T18:40:37.439Z,1.76
2018-02-02T18:41:37.436Z,1.71
2018-02-02T18:42:37.420Z,1.71
2018-02-02T18:43:37.409Z,1.76
2018-02-02T18:44:37.397Z,1.68
2018-02-02T18:45:37.384Z,1.75
2018-02-02T18:46:37.444Z,1.67
2018-02-02T18:47:37.387Z,1.67
2018-02-02T18:48:37.352Z,1.71
2018-02-02T18:49:37.337Z,1.71
2018-02-02T18:50:37.357Z,1.63
2018-02-02T18:51:37.331Z,1.64
2018-02-02T18:52:37.316Z,1.63
2018-02-02T18:53:37.322Z,1.66
2018-02-02T18:54:37.307Z,1.67
2018-02-02T18:55:37.285Z,1.58
2018-02-02T18:56:37.269Z,1.56
2018-02-02T18:57:37.256Z,1.50
2018-02-02T18:58:37.248Z,1.57
2018-02-02T18:59:37.237Z,1.53
2018-02-02T19:00:37.221Z,1.46
2018-02-02T19:01:37.209Z,1.42
2018-02-02T19:02:37.224Z,1.45
2018-02-02T19:03:37.192Z,1.52
2018-02-02T19:04:37.177Z,1.46
2018-02-02T19:05:37.185Z,1.52
2018-02-02T19:06:37.156Z,1.56
2018-02-02T19:07:37.158Z,1.53
2018-02-02T19:08:37.156Z,1.46
2018-02-02T19:09:37.151Z,1.49
2018-02-02T19:10:37.124Z,1.48
2018-02-02T19:11:37.100Z,1.43
2018-02-02T19:12:37.133Z,1.52
2018-02-02T19:13:37.144Z,1.46
2018-02-02T19:14:37.101Z,1.53
2018-02-02T19:15:37.067Z,1.46
2018-02-02T19:16:37.046Z,1.48
2018-02-02T19:17:37.144Z,1.45
2018-02-02T19:18:37.023Z,1.46
2018-02-02T19:19:37.061Z,1.48
2018-02-02T19:20:37.043Z,1.43
2018-02-02T19:21:37.006Z,1.49
2018-02-02T19:22:36.981Z,1.43
2018-02-02T19:23:37.039Z,1.48
2018-02-02T19:24:36.952Z,1.48
2018-02-02T19:25:36.982Z,1.43
2018-02-02T19:26:36.987Z,1.48
2018-02-02T19:27:36.938Z,1.48
2018-02-02T19:28:36.902Z,1.42
2018-02-02T19:29:36.944Z,1.43
2018-02-02T19:30:36.903Z,1.42
2018-02-02T19:31:36.896Z,1.40
2018-02-02T19:32:36.869Z,1.42
2018-02-02T19:33:36.846Z,1.42
2018-02-02T19:34:36.853Z,1.36
2018-02-02T19:35:36.823Z,1.39
2018-02-02T19:36:36.866Z,1.36
2018-02-02T19:37:36.990Z,1.42
2018-02-02T19:38:36.792Z,1.34
2018-02-02T19:39:36.801Z,1.40
2018-02-02T19:40:36.776Z,1.39
2018-02-02T19:41:36.770Z,1.40
2018-02-02T19:42:36.761Z,1.38
2018-02-02T19:43:36.767Z,1.39
2018-02-02T19:44:36.728Z,1.32
2018-02-02T19:45:36.711Z,1.36
2018-02-02T19:46:36.729Z,1.25
2018-02-02T19:47:36.696Z,1.38
2018-02-02T19:48:37.337Z,1.22
2018-02-02T19:49:36.666Z,1.25
2018-02-02T19:50:36.653Z,1.39
2018-02-02T19:51:36.645Z,1.22
2018-02-02T19:52:36.642Z,1.24
2018-02-02T19:53:36.616Z,1.21
2018-02-02T19:54:36.610Z,1.24
2018-02-02T19:55:36.588Z,1.24
2018-02-02T19:56:36.580Z,1.20
2018-02-02T19:57:36.643Z,1.09
2018-02-02T19:58:36.710Z,1.21
2018-02-02T19:59:36.545Z,1.14
2018-02-02T20:00:36.535Z,1.13
2018-02-02T20:01:36.539Z,1.12
2018-02-02T20:02:36.530Z,1.04
2018-02-02T20:03:36.556Z,1.09
2018-02-02T20:04:36.557Z,1.12
2018-02-02T20:05:36.477Z,1.20
2018-02-02T20:06:36.463Z,1.20
2018-02-02T20:07:36.449Z,1.18
2018-02-02T20:08:37.298Z,1.18
2018-02-02T20:09:36.449Z,1.07
2018-02-02T20:10:36.434Z,1.16
2018-02-02T20:11:36.405Z,1.13
2018-02-02T20:12:36.398Z,1.18
2018-02-02T20:13:36.381Z,1.21
2018-02-02T20:14:36.385Z,1.13
2018-02-02T20:15:36.363Z,1.12
2018-02-02T20:16:36.356Z,1.13
2018-02-02T20:17:36.411Z,1.18
2018-02-02T20:18:36.447Z,1.18
2018-02-02T20:19:36.321Z,1.12
2018-02-02T20:20:36.298Z,1.12
2018-02-02T20:21:36.331Z,1.14
2018-02-02T20:22:36.305Z,1.18
2018-02-02T20:23:36.301Z,1.12
2018-02-02T20:24:36.270Z,1.18
2018-02-02T20:25:36.262Z,1.13
2018-02-02T20:26:36.242Z,1.07
2018-02-02T20:27:36.237Z,1.13
2018-02-02T20:28:36.212Z,1.14
2018-02-02T20:29:36.212Z,1.04
2018-02-02T20:30:36.220Z,1.04
2018-02-02T20:31:36.180Z,1.06
2018-02-02T20:32:36.214Z,1.02
2018-02-02T20:33:36.213Z,0.96
2018-02-02T20:34:36.136Z,0.92
2018-02-02T20:35:36.144Z,0.91
2018-02-02T20:36:36.120Z,0.85
2018-02-02T20:37:36.104Z,0.88
2018-02-02T20:38:36.088Z,0.82
2018-02-02T20:39:36.085Z,0.76
2018-02-02T20:40:36.068Z,0.76
2018-02-02T20:41:36.107Z,0.73
2018-02-02T20:42:36.158Z,0.68
2018-02-02T20:43:36.164Z,0.64
2018-02-02T20:44:36.154Z,0.66
2018-02-02T20:45:36.008Z,0.67
2018-02-02T20:46:36.006Z,0.66
2018-02-02T20:47:35.984Z,0.59
2018-02-02T20:48:35.978Z,0.51
2018-02-02T20:49:35.989Z,0.56
2018-02-02T20:50:35.987Z,0.58
2018-02-02T20:51:35.980Z,0.52
2018-02-02T20:52:35.995Z,0.56
2018-02-02T20:53:35.926Z,0.48
2018-02-02T20:54:35.902Z,0.48
2018-02-02T20:55:35.999Z,0.58
2018-02-02T20:56:35.923Z,0.51
2018-02-02T20:57:35.941Z,0.56
2018-02-02T20:58:35.906Z,0.49
2018-02-02T20:59:35.918Z,0.45
2018-02-02T21:00:35.855Z,0.51
2018-02-02T21:01:35.822Z,0.51
2018-02-02T21:02:35.807Z,0.47
2018-02-02T21:03:35.890Z,0.52
2018-02-02T21:04:35.774Z,0.40
2018-02-02T21:05:36.432Z,0.52
2018-02-02T21:06:35.750Z,0.51
2018-02-02T21:07:35.735Z,0.52
2018-02-02T21:08:35.725Z,0.51
2018-02-02T21:09:35.710Z,0.49
2018-02-02T21:10:35.697Z,0.51
2018-02-02T21:11:35.689Z,0.58
2018-02-02T21:12:35.672Z,0.63
2018-02-02T21:13:35.721Z,0.58
2018-02-02T21:14:35.651Z,0.56
2018-02-02T21:15:35.768Z,0.51
2018-02-02T21:16:35.629Z,0.58
2018-02-02T21:17:35.781Z,0.59
2018-02-02T21:18:35.604Z,0.51
2018-02-02T21:19:35.793Z,0.48
2018-02-02T21:20:35.593Z,0.58
2018-02-02T21:21:35.570Z,0.47
2018-02-02T21:22:35.555Z,0.49
2018-02-02T21:23:35.542Z,0.40
2018-02-02T21:24:35.530Z,0.40
2018-02-02T21:25:35.521Z,0.44
2018-02-02T21:26:35.510Z,0.49
2018-02-02T21:27:35.496Z,0.55
2018-02-02T21:28:35.484Z,0.49
2018-02-02T21:29:36.376Z,0.47
2018-02-02T21:30:35.458Z,0.48
2018-02-02T21:31:35.445Z,0.42
2018-02-02T21:32:35.434Z,0.64
2018-02-02T21:33:35.503Z,0.58
2018-02-02T21:34:35.437Z,0.52
2018-02-02T21:35:35.455Z,0.56
2018-02-02T21:36:35.392Z,0.47
2018-02-02T21:37:35.374Z,0.49
2018-02-02T21:38:35.363Z,0.51
2018-02-02T21:39:35.372Z,0.49
2018-02-02T21:40:35.353Z,0.55
2018-02-02T21:41:35.324Z,0.34
2018-02-02T21:42:35.305Z,0.52
2018-02-02T21:43:35.305Z,0.47
2018-02-02T21:44:35.287Z,0.56
2018-02-02T21:45:35.267Z,0.63
2018-02-02T21:46:35.266Z,0.49
2018-02-02T21:47:35.252Z,0.55
2018-02-02T21:48:35.233Z,0.45
2018-02-02T21:49:35.235Z,0.45
2018-02-02T21:50:35.736Z,0.39
2018-02-02T21:51:35.198Z,0.34
2018-02-02T21:52:35.198Z,0.37
2018-02-02T21:53:35.196Z,0.30
2018-02-02T21:54:35.168Z,0.26
2018-02-02T21:55:35.173Z,0.26
2018-02-02T21:56:35.140Z,0.18
2018-02-02T21:57:35.161Z,0.16
2018-02-02T21:58:35.118Z,0.05
2018-02-02T21:59:35.109Z,0.02
2018-02-02T22:00:35.264Z,0.09
2018-02-02T22:01:35.080Z,-0.03
2018-02-02T22:02:35.065Z,-0.07
2018-02-02T22:03:35.073Z,-0.12
2018-02-02T22:04:35.058Z,-0.18
2018-02-02T22:05:35.031Z,-0.21
2018-02-02T22:06:35.729Z,-0.18
2018-02-02T22:07:35.013Z,-0.18
2018-02-02T22:08:35.017Z,-0.24
2018-02-02T22:09:34.982Z,-0.27
2018-02-02T22:10:34.980Z,-0.27
2018-02-02T22:11:35.046Z,-0.30
2018-02-02T22:12:34.968Z,-0.41
2018-02-02T22:13:34.944Z,-0.38
2018-02-02T22:14:34.934Z,-0.41
2018-02-02T22:15:34.912Z,-0.41
2018-02-02T22:16:34.934Z,-0.44
2018-02-02T22:17:34.888Z,-0.36
2018-02-02T22:18:34.904Z,-0.35
2018-02-02T22:19:34.870Z,-0.33
2018-02-02T22:20:34.851Z,-0.44
2018-02-02T22:21:34.861Z,-0.36
2018-02-02T22:22:34.821Z,-0.28
2018-02-02T22:23:34.839Z,-0.39
2018-02-02T22:24:34.801Z,-0.41
2018-02-02T22:25:34.789Z,-0.36
2018-02-02T22:26:34.770Z,-0.41
2018-02-02T22:27:34.817Z,-0.36
2018-02-02T22:28:34.767Z,-0.41
2018-02-02T22:29:34.737Z,-0.38
2018-02-02T22:30:34.727Z,-0.38
2018-02-02T22:31:34.709Z,-0.33
2018-02-02T22:32:34.697Z,-0.38
2018-02-02T22:33:34.686Z,-0.39
2018-02-02T22:34:34.677Z,-0.41
2018-02-02T22:35:34.659Z,-0.48
2018-02-02T22:36:34.654Z,-0.39
2018-02-02T22:37:34.636Z,-0.46
2018-02-02T22:38:34.623Z,-0.46
2018-02-02T22:39:34.615Z,-0.39
2018-02-02T22:40:34.603Z,-0.46
2018-02-02T22:41:34.586Z,-0.45
2018-02-02T22:42:34.572Z,-0.41
2018-02-02T22:43:34.562Z,-0.46
2018-02-02T22:44:34.551Z,-0.56
2018-02-02T22:45:34.538Z,-0.56
2018-02-02T22:46:34.530Z,-0.53
2018-02-02T22:47:34.514Z,-0.57
2018-02-02T22:48:34.499Z,-0.57
2018-02-02T22:49:34.488Z,-0.53
2018-02-02T22:50:34.476Z,-0.60
2018-02-02T22:51:34.465Z,-0.60
2018-02-02T22:52:34.492Z,-0.57
2018-02-02T22:53:34.440Z,-0.56
2018-02-02T22:54:34.434Z,-0.59
2018-02-02T22:55:34.418Z,-0.69
2018-02-02T22:56:34.400Z,-0.62
2018-02-02T22:57:34.383Z,-0.67
2018-02-02T22:58:34.376Z,-0.64
2018-02-02T22:59:34.362Z,-0.69
2018-02-02T23:00:34.355Z,-0.69
2018-02-02T23:01:34.337Z,-0.59
2018-02-02T23:02:34.325Z,-0.60
2018-02-02T23:03:34.319Z,-0.60
2018-02-02T23:04:34.408Z,-0.51
2018-02-02T23:05:34.420Z,-0.38
2018-02-02T23:06:34.411Z,-0.49
2018-02-02T23:07:34.268Z,-0.38
2018-02-02T23:08:34.252Z,-0.33
2018-02-02T23:09:34.240Z,-0.36
2018-02-02T23:10:34.225Z,-0.31
2018-02-02T23:11:34.216Z,-0.28
2018-02-02T23:12:34.203Z,-0.38
2018-02-02T23:13:34.189Z,-0.27
2018-02-02T23:14:34.175Z,-0.23
2018-02-02T23:15:34.164Z,-0.26
2018-02-02T23:16:34.152Z,-0.13
2018-02-02T23:17:34.139Z,-0.20
2018-02-02T23:18:34.126Z,-0.18
2018-02-02T23:19:35.247Z,-0.13
2018-02-02T23:20:34.102Z,-0.05
2018-02-02T23:21:34.101Z,-0.02
2018-02-02T23:22:34.095Z,0.01